sensor_id;sensor_type;location;lat;lon;timestamp;P1;durP1;ratioP1;P2;durP2;ratioP2
21032;SDS011;10675;47.976;7.824;2022-08-19T00:00:19;5.40;;;4.70;;
21032;SDS011;10675;47.976;7.824;2022-08-19T00:02:45;5.80;;;4.80;;
21032;SDS011;10675;47.976;7.824;2022-08-19T00:05:11;5.73;;;4.73;;
21032;SDS011;10675;47.976;7.824;2022-08-19T00:07:38;6.53;;;4.50;;
21032;SDS011;10675;47.976;7.824;2022-08-19T00:10:06;5.50;;;4.07;;
21032;SDS011;10675;47.976;7.824;2022-08-19T00:12:33;5.37;;;4.83;;
21032;SDS011;10675;47.976;7.824;2022-08-19T00:14:59;5.17;;;4.33;;
21032;SDS011;10675;47.976;7.824;2022-08-19T00:17:24;5.33;;;4.20;;
21032;SDS011;10675;47.976;7.824;2022-08-19T00:19:50;5.80;;;4.43;;
21032;SDS011;10675;47.976;7.824;2022-08-19T00:22:16;7.47;;;4.57;;
21032;SDS011;10675;47.976;7.824;2022-08-19T00:24:43;4.90;;;4.40;;
21032;SDS011;10675;47.976;7.824;2022-08-19T00:27:10;5.00;;;4.23;;
21032;SDS011;10675;47.976;7.824;2022-08-19T00:29:36;5.07;;;4.37;;
21032;SDS011;10675;47.976;7.824;2022-08-19T00:32:02;5.67;;;4.13;;
21032;SDS011;10675;47.976;7.824;2022-08-19T00:34:29;5.23;;;3.97;;
21032;SDS011;10675;47.976;7.824;2022-08-19T00:36:55;4.77;;;4.27;;
21032;SDS011;10675;47.976;7.824;2022-08-19T00:39:21;5.30;;;4.27;;
21032;SDS011;10675;47.976;7.824;2022-08-19T00:41:48;5.20;;;4.53;;
21032;SDS011;10675;47.976;7.824;2022-08-19T00:44:16;6.23;;;4.50;;
21032;SDS011;10675;47.976;7.824;2022-08-19T00:46:47;5.57;;;4.50;;
21032;SDS011;10675;47.976;7.824;2022-08-19T00:49:16;5.43;;;4.53;;
21032;SDS011;10675;47.976;7.824;2022-08-19T00:52:07;5.97;;;4.70;;
21032;SDS011;10675;47.976;7.824;2022-08-19T00:54:37;5.50;;;4.73;;
21032;SDS011;10675;47.976;7.824;2022-08-19T00:57:05;5.00;;;4.50;;
21032;SDS011;10675;47.976;7.824;2022-08-19T00:59:34;5.37;;;4.60;;
21032;SDS011;10675;47.976;7.824;2022-08-19T01:02:03;6.37;;;4.47;;
21032;SDS011;10675;47.976;7.824;2022-08-19T01:04:29;5.90;;;4.80;;
21032;SDS011;10675;47.976;7.824;2022-08-19T01:06:55;7.20;;;4.77;;
21032;SDS011;10675;47.976;7.824;2022-08-19T01:09:22;5.17;;;4.37;;
21032;SDS011;10675;47.976;7.824;2022-08-19T01:11:47;6.27;;;4.63;;
21032;SDS011;10675;47.976;7.824;2022-08-19T01:14:14;6.77;;;5.20;;
21032;SDS011;10675;47.976;7.824;2022-08-19T01:16:41;6.90;;;5.20;;
21032;SDS011;10675;47.976;7.824;2022-08-19T01:19:20;6.60;;;4.70;;
21032;SDS011;10675;47.976;7.824;2022-08-19T01:21:52;7.33;;;4.87;;
21032;SDS011;10675;47.976;7.824;2022-08-19T01:24:24;8.90;;;5.63;;
21032;SDS011;10675;47.976;7.824;2022-08-19T01:26:49;5.53;;;4.53;;
21032;SDS011;10675;47.976;7.824;2022-08-19T01:29:15;6.37;;;4.80;;
21032;SDS011;10675;47.976;7.824;2022-08-19T01:31:40;7.27;;;5.20;;
21032;SDS011;10675;47.976;7.824;2022-08-19T01:34:06;6.80;;;5.43;;
21032;SDS011;10675;47.976;7.824;2022-08-19T01:36:34;7.10;;;5.57;;
21032;SDS011;10675;47.976;7.824;2022-08-19T01:39:04;7.37;;;5.17;;
21032;SDS011;10675;47.976;7.824;2022-08-19T01:41:33;5.67;;;4.83;;
21032;SDS011;10675;47.976;7.824;2022-08-19T01:43:59;6.17;;;4.67;;
21032;SDS011;10675;47.976;7.824;2022-08-19T01:46:28;5.97;;;5.07;;
21032;SDS011;10675;47.976;7.824;2022-08-19T01:48:54;5.43;;;4.70;;
21032;SDS011;10675;47.976;7.824;2022-08-19T01:51:19;6.83;;;5.63;;
21032;SDS011;10675;47.976;7.824;2022-08-19T01:53:48;5.63;;;4.87;;
21032;SDS011;10675;47.976;7.824;2022-08-19T01:56:15;7.00;;;5.20;;
21032;SDS011;10675;47.976;7.824;2022-08-19T01:58:44;6.97;;;5.70;;
21032;SDS011;10675;47.976;7.824;2022-08-19T02:01:15;6.60;;;4.90;;
21032;SDS011;10675;47.976;7.824;2022-08-19T02:03:42;6.53;;;5.20;;
21032;SDS011;10675;47.976;7.824;2022-08-19T02:06:08;5.90;;;4.83;;
21032;SDS011;10675;47.976;7.824;2022-08-19T02:08:35;6.20;;;4.90;;
21032;SDS011;10675;47.976;7.824;2022-08-19T02:11:02;5.57;;;4.97;;
21032;SDS011;10675;47.976;7.824;2022-08-19T02:13:28;7.40;;;5.33;;
21032;SDS011;10675;47.976;7.824;2022-08-19T02:15:54;6.80;;;5.37;;
21032;SDS011;10675;47.976;7.824;2022-08-19T02:18:19;7.07;;;5.07;;
21032;SDS011;10675;47.976;7.824;2022-08-19T02:20:45;6.60;;;5.00;;
21032;SDS011;10675;47.976;7.824;2022-08-19T02:23:12;5.60;;;5.00;;
21032;SDS011;10675;47.976;7.824;2022-08-19T02:25:39;5.70;;;4.73;;
21032;SDS011;10675;47.976;7.824;2022-08-19T02:28:05;5.83;;;5.23;;
21032;SDS011;10675;47.976;7.824;2022-08-19T02:30:31;6.77;;;5.37;;
21032;SDS011;10675;47.976;7.824;2022-08-19T02:32:57;5.63;;;5.03;;
21032;SDS011;10675;47.976;7.824;2022-08-19T02:35:22;6.57;;;4.83;;
21032;SDS011;10675;47.976;7.824;2022-08-19T02:37:48;6.63;;;4.63;;
21032;SDS011;10675;47.976;7.824;2022-08-19T02:40:32;6.47;;;5.17;;
21032;SDS011;10675;47.976;7.824;2022-08-19T02:43:02;7.57;;;4.80;;
21032;SDS011;10675;47.976;7.824;2022-08-19T02:45:32;5.87;;;5.20;;
21032;SDS011;10675;47.976;7.824;2022-08-19T02:47:59;6.73;;;4.83;;
21032;SDS011;10675;47.976;7.824;2022-08-19T02:50:24;7.83;;;5.20;;
21032;SDS011;10675;47.976;7.824;2022-08-19T02:52:50;7.27;;;4.97;;
21032;SDS011;10675;47.976;7.824;2022-08-19T02:55:16;6.17;;;5.47;;
21032;SDS011;10675;47.976;7.824;2022-08-19T02:57:41;6.00;;;4.53;;
21032;SDS011;10675;47.976;7.824;2022-08-19T03:00:07;5.40;;;4.90;;
21032;SDS011;10675;47.976;7.824;2022-08-19T03:02:37;5.67;;;5.10;;
21032;SDS011;10675;47.976;7.824;2022-08-19T03:05:03;6.50;;;4.93;;
21032;SDS011;10675;47.976;7.824;2022-08-19T03:07:30;6.33;;;4.63;;
21032;SDS011;10675;47.976;7.824;2022-08-19T03:09:55;6.00;;;4.83;;
21032;SDS011;10675;47.976;7.824;2022-08-19T03:12:21;7.60;;;5.17;;
21032;SDS011;10675;47.976;7.824;2022-08-19T03:14:46;7.47;;;5.10;;
21032;SDS011;10675;47.976;7.824;2022-08-19T03:17:12;5.33;;;4.67;;
21032;SDS011;10675;47.976;7.824;2022-08-19T03:19:38;7.17;;;5.23;;
21032;SDS011;10675;47.976;7.824;2022-08-19T03:22:04;5.57;;;4.97;;
21032;SDS011;10675;47.976;7.824;2022-08-19T03:24:29;7.77;;;5.27;;
21032;SDS011;10675;47.976;7.824;2022-08-19T03:26:56;8.47;;;5.23;;
21032;SDS011;10675;47.976;7.824;2022-08-19T03:29:22;6.07;;;5.37;;
21032;SDS011;10675;47.976;7.824;2022-08-19T03:31:48;6.00;;;5.00;;
21032;SDS011;10675;47.976;7.824;2022-08-19T03:34:18;6.80;;;5.20;;
21032;SDS011;10675;47.976;7.824;2022-08-19T03:36:46;6.97;;;5.63;;
21032;SDS011;10675;47.976;7.824;2022-08-19T03:39:12;6.57;;;5.43;;
21032;SDS011;10675;47.976;7.824;2022-08-19T03:41:40;5.83;;;5.10;;
21032;SDS011;10675;47.976;7.824;2022-08-19T03:44:08;7.53;;;5.57;;
21032;SDS011;10675;47.976;7.824;2022-08-19T03:46:35;8.33;;;5.57;;
21032;SDS011;10675;47.976;7.824;2022-08-19T03:49:02;5.73;;;5.13;;
21032;SDS011;10675;47.976;7.824;2022-08-19T03:51:33;6.07;;;5.47;;
21032;SDS011;10675;47.976;7.824;2022-08-19T03:54:00;9.70;;;5.47;;
21032;SDS011;10675;47.976;7.824;2022-08-19T03:56:29;6.30;;;5.43;;
21032;SDS011;10675;47.976;7.824;2022-08-19T03:58:55;6.13;;;5.33;;
21032;SDS011;10675;47.976;7.824;2022-08-19T04:01:23;7.10;;;5.37;;
21032;SDS011;10675;47.976;7.824;2022-08-19T04:03:51;6.67;;;5.37;;
21032;SDS011;10675;47.976;7.824;2022-08-19T04:09:10;6.70;;;5.20;;
21032;SDS011;10675;47.976;7.824;2022-08-19T04:11:37;6.70;;;5.40;;
21032;SDS011;10675;47.976;7.824;2022-08-19T04:14:09;6.63;;;5.43;;
21032;SDS011;10675;47.976;7.824;2022-08-19T04:16:37;7.27;;;6.00;;
21032;SDS011;10675;47.976;7.824;2022-08-19T04:19:03;7.07;;;5.43;;
21032;SDS011;10675;47.976;7.824;2022-08-19T04:21:30;7.60;;;5.30;;
21032;SDS011;10675;47.976;7.824;2022-08-19T04:23:56;8.60;;;5.87;;
21032;SDS011;10675;47.976;7.824;2022-08-19T04:26:24;7.70;;;6.10;;
21032;SDS011;10675;47.976;7.824;2022-08-19T04:28:51;9.73;;;5.87;;
21032;SDS011;10675;47.976;7.824;2022-08-19T04:31:19;8.00;;;6.20;;
21032;SDS011;10675;47.976;7.824;2022-08-19T04:33:47;8.33;;;6.83;;
21032;SDS011;10675;47.976;7.824;2022-08-19T04:36:20;9.37;;;5.97;;
21032;SDS011;10675;47.976;7.824;2022-08-19T04:38:48;9.00;;;6.00;;
21032;SDS011;10675;47.976;7.824;2022-08-19T04:41:15;8.13;;;5.90;;
21032;SDS011;10675;47.976;7.824;2022-08-19T04:44:00;7.40;;;5.73;;
21032;SDS011;10675;47.976;7.824;2022-08-19T04:46:27;7.40;;;5.87;;
21032;SDS011;10675;47.976;7.824;2022-08-19T04:48:56;10.43;;;5.90;;
21032;SDS011;10675;47.976;7.824;2022-08-19T04:51:22;7.63;;;5.50;;
21032;SDS011;10675;47.976;7.824;2022-08-19T04:53:48;6.73;;;5.80;;
21032;SDS011;10675;47.976;7.824;2022-08-19T04:56:14;7.53;;;6.17;;
21032;SDS011;10675;47.976;7.824;2022-08-19T04:58:42;7.90;;;5.93;;
21032;SDS011;10675;47.976;7.824;2022-08-19T05:01:11;6.93;;;5.77;;
21032;SDS011;10675;47.976;7.824;2022-08-19T05:03:43;8.03;;;6.23;;
21032;SDS011;10675;47.976;7.824;2022-08-19T05:06:10;8.20;;;5.97;;
21032;SDS011;10675;47.976;7.824;2022-08-19T05:08:39;7.03;;;5.70;;
21032;SDS011;10675;47.976;7.824;2022-08-19T05:13:45;9.10;;;6.57;;
21032;SDS011;10675;47.976;7.824;2022-08-19T05:16:14;8.00;;;5.87;;
21032;SDS011;10675;47.976;7.824;2022-08-19T05:18:42;6.70;;;5.20;;
21032;SDS011;10675;47.976;7.824;2022-08-19T05:21:27;7.13;;;5.87;;
21032;SDS011;10675;47.976;7.824;2022-08-19T05:24:12;7.33;;;5.93;;
21032;SDS011;10675;47.976;7.824;2022-08-19T05:26:41;6.97;;;5.37;;
21032;SDS011;10675;47.976;7.824;2022-08-19T05:29:10;8.80;;;5.67;;
21032;SDS011;10675;47.976;7.824;2022-08-19T05:31:36;7.10;;;5.37;;
21032;SDS011;10675;47.976;7.824;2022-08-19T05:34:04;6.80;;;5.40;;
21032;SDS011;10675;47.976;7.824;2022-08-19T05:36:36;7.67;;;5.07;;
21032;SDS011;10675;47.976;7.824;2022-08-19T05:39:05;6.30;;;4.73;;
21032;SDS011;10675;47.976;7.824;2022-08-19T05:41:31;6.83;;;5.53;;
21032;SDS011;10675;47.976;7.824;2022-08-19T05:43:57;6.63;;;5.33;;
21032;SDS011;10675;47.976;7.824;2022-08-19T05:46:23;6.57;;;5.20;;
21032;SDS011;10675;47.976;7.824;2022-08-19T05:48:49;7.20;;;5.77;;
21032;SDS011;10675;47.976;7.824;2022-08-19T05:51:14;8.03;;;5.67;;
21032;SDS011;10675;47.976;7.824;2022-08-19T05:53:41;5.60;;;4.93;;
21032;SDS011;10675;47.976;7.824;2022-08-19T05:56:09;8.17;;;6.13;;
21032;SDS011;10675;47.976;7.824;2022-08-19T05:58:37;5.73;;;4.80;;
21032;SDS011;10675;47.976;7.824;2022-08-19T06:01:08;6.13;;;5.43;;
21032;SDS011;10675;47.976;7.824;2022-08-19T06:03:35;6.60;;;5.00;;
21032;SDS011;10675;47.976;7.824;2022-08-19T06:06:02;6.73;;;5.20;;
21032;SDS011;10675;47.976;7.824;2022-08-19T06:08:28;6.07;;;5.10;;
21032;SDS011;10675;47.976;7.824;2022-08-19T06:10:54;7.40;;;4.80;;
21032;SDS011;10675;47.976;7.824;2022-08-19T06:13:20;8.60;;;5.23;;
21032;SDS011;10675;47.976;7.824;2022-08-19T06:15:47;7.23;;;5.43;;
21032;SDS011;10675;47.976;7.824;2022-08-19T06:18:14;5.53;;;4.90;;
21032;SDS011;10675;47.976;7.824;2022-08-19T06:20:40;6.03;;;4.80;;
21032;SDS011;10675;47.976;7.824;2022-08-19T06:23:06;6.10;;;5.27;;
21032;SDS011;10675;47.976;7.824;2022-08-19T06:25:33;5.27;;;4.63;;
21032;SDS011;10675;47.976;7.824;2022-08-19T06:27:58;5.30;;;4.23;;
21032;SDS011;10675;47.976;7.824;2022-08-19T06:30:24;5.30;;;4.37;;
21032;SDS011;10675;47.976;7.824;2022-08-19T06:32:49;5.83;;;4.40;;
21032;SDS011;10675;47.976;7.824;2022-08-19T06:35:15;9.33;;;4.47;;
21032;SDS011;10675;47.976;7.824;2022-08-19T06:37:40;6.27;;;4.60;;
21032;SDS011;10675;47.976;7.824;2022-08-19T06:40:07;5.30;;;4.13;;
21032;SDS011;10675;47.976;7.824;2022-08-19T06:42:35;5.57;;;4.50;;
21032;SDS011;10675;47.976;7.824;2022-08-19T06:45:03;5.13;;;4.50;;
21032;SDS011;10675;47.976;7.824;2022-08-19T06:47:30;4.93;;;4.43;;
21032;SDS011;10675;47.976;7.824;2022-08-19T06:49:57;4.80;;;4.20;;
21032;SDS011;10675;47.976;7.824;2022-08-19T06:52:27;6.27;;;4.33;;
21032;SDS011;10675;47.976;7.824;2022-08-19T06:54:54;5.40;;;4.60;;
21032;SDS011;10675;47.976;7.824;2022-08-19T06:57:21;5.13;;;4.63;;
21032;SDS011;10675;47.976;7.824;2022-08-19T06:59:46;5.87;;;4.73;;
21032;SDS011;10675;47.976;7.824;2022-08-19T07:02:12;5.47;;;4.55;;
21032;SDS011;10675;47.976;7.824;2022-08-19T07:04:38;5.00;;;4.13;;
21032;SDS011;10675;47.976;7.824;2022-08-19T07:07:08;5.90;;;4.68;;
21032;SDS011;10675;47.976;7.824;2022-08-19T07:09:37;5.67;;;4.67;;
21032;SDS011;10675;47.976;7.824;2022-08-19T07:12:06;4.80;;;4.20;;
21032;SDS011;10675;47.976;7.824;2022-08-19T07:14:34;7.00;;;4.57;;
21032;SDS011;10675;47.976;7.824;2022-08-19T07:17:02;6.25;;;4.85;;
21032;SDS011;10675;47.976;7.824;2022-08-19T07:19:32;8.17;;;4.90;;
21032;SDS011;10675;47.976;7.824;2022-08-19T07:22:00;5.10;;;4.50;;
21032;SDS011;10675;47.976;7.824;2022-08-19T07:24:26;6.53;;;5.07;;
21032;SDS011;10675;47.976;7.824;2022-08-19T07:26:53;5.20;;;4.70;;
21032;SDS011;10675;47.976;7.824;2022-08-19T07:29:22;7.53;;;5.43;;
21032;SDS011;10675;47.976;7.824;2022-08-19T07:31:48;5.60;;;4.47;;
21032;SDS011;10675;47.976;7.824;2022-08-19T07:34:20;6.50;;;5.38;;
21032;SDS011;10675;47.976;7.824;2022-08-19T07:36:47;6.43;;;5.28;;
21032;SDS011;10675;47.976;7.824;2022-08-19T07:39:23;6.30;;;5.05;;
21032;SDS011;10675;47.976;7.824;2022-08-19T07:41:51;7.75;;;5.35;;
21032;SDS011;10675;47.976;7.824;2022-08-19T07:44:18;7.15;;;5.53;;
21032;SDS011;10675;47.976;7.824;2022-08-19T07:46:46;8.30;;;5.80;;
21032;SDS011;10675;47.976;7.824;2022-08-19T07:49:14;4.88;;;4.32;;
21032;SDS011;10675;47.976;7.824;2022-08-19T07:51:54;6.88;;;5.75;;
21032;SDS011;10675;47.976;7.824;2022-08-19T07:54:25;8.00;;;4.88;;
21032;SDS011;10675;47.976;7.824;2022-08-19T07:56:52;7.63;;;5.55;;
21032;SDS011;10675;47.976;7.824;2022-08-19T07:59:18;7.75;;;6.00;;
21032;SDS011;10675;47.976;7.824;2022-08-19T08:01:45;8.00;;;5.75;;
21032;SDS011;10675;47.976;7.824;2022-08-19T08:04:11;7.55;;;5.95;;
21032;SDS011;10675;47.976;7.824;2022-08-19T08:06:55;6.47;;;5.78;;
21032;SDS011;10675;47.976;7.824;2022-08-19T08:09:40;8.43;;;6.22;;
21032;SDS011;10675;47.976;7.824;2022-08-19T08:12:11;8.50;;;6.68;;
21032;SDS011;10675;47.976;7.824;2022-08-19T08:17:09;9.68;;;7.25;;
21032;SDS011;10675;47.976;7.824;2022-08-19T08:19:35;12.07;;;7.68;;
21032;SDS011;10675;47.976;7.824;2022-08-19T08:22:03;10.25;;;7.00;;
21032;SDS011;10675;47.976;7.824;2022-08-19T08:24:30;16.25;;;7.63;;
21032;SDS011;10675;47.976;7.824;2022-08-19T08:26:57;8.98;;;7.30;;
21032;SDS011;10675;47.976;7.824;2022-08-19T08:29:28;10.98;;;7.28;;
21032;SDS011;10675;47.976;7.824;2022-08-19T08:31:54;13.63;;;8.20;;
21032;SDS011;10675;47.976;7.824;2022-08-19T08:34:20;11.32;;;7.93;;
21032;SDS011;10675;47.976;7.824;2022-08-19T08:36:45;11.63;;;7.70;;
21032;SDS011;10675;47.976;7.824;2022-08-19T08:39:13;12.18;;;7.97;;
21032;SDS011;10675;47.976;7.824;2022-08-19T08:41:46;11.80;;;8.10;;
21032;SDS011;10675;47.976;7.824;2022-08-19T08:44:22;10.45;;;8.40;;
21032;SDS011;10675;47.976;7.824;2022-08-19T08:46:53;12.50;;;8.77;;
21032;SDS011;10675;47.976;7.824;2022-08-19T08:49:27;11.68;;;8.70;;
21032;SDS011;10675;47.976;7.824;2022-08-19T08:54:30;10.43;;;8.05;;
21032;SDS011;10675;47.976;7.824;2022-08-19T08:57:03;10.05;;;8.20;;
21032;SDS011;10675;47.976;7.824;2022-08-19T08:59:35;9.57;;;8.13;;
21032;SDS011;10675;47.976;7.824;2022-08-19T09:02:04;10.05;;;7.65;;
21032;SDS011;10675;47.976;7.824;2022-08-19T09:04:29;9.23;;;7.63;;
21032;SDS011;10675;47.976;7.824;2022-08-19T09:09:41;11.07;;;8.38;;
21032;SDS011;10675;47.976;7.824;2022-08-19T09:12:20;9.63;;;8.35;;
21032;SDS011;10675;47.976;7.824;2022-08-19T09:15:01;11.52;;;9.32;;
21032;SDS011;10675;47.976;7.824;2022-08-19T09:17:31;12.65;;;8.70;;
21032;SDS011;10675;47.976;7.824;2022-08-19T09:22:25;10.75;;;8.05;;
21032;SDS011;10675;47.976;7.824;2022-08-19T09:24:51;10.77;;;8.13;;
21032;SDS011;10675;47.976;7.824;2022-08-19T09:27:18;11.23;;;8.27;;
21032;SDS011;10675;47.976;7.824;2022-08-19T09:29:45;10.40;;;8.43;;
21032;SDS011;10675;47.976;7.824;2022-08-19T09:32:13;11.38;;;8.90;;
21032;SDS011;10675;47.976;7.824;2022-08-19T09:34:39;11.75;;;8.75;;
21032;SDS011;10675;47.976;7.824;2022-08-19T09:37:04;10.52;;;8.63;;
21032;SDS011;10675;47.976;7.824;2022-08-19T09:39:30;12.38;;;9.48;;
21032;SDS011;10675;47.976;7.824;2022-08-19T09:41:56;10.50;;;8.45;;
21032;SDS011;10675;47.976;7.824;2022-08-19T09:44:21;12.00;;;8.57;;
21032;SDS011;10675;47.976;7.824;2022-08-19T09:46:47;10.40;;;8.32;;
21032;SDS011;10675;47.976;7.824;2022-08-19T09:49:13;11.85;;;8.90;;
21032;SDS011;10675;47.976;7.824;2022-08-19T09:51:39;10.05;;;7.60;;
21032;SDS011;10675;47.976;7.824;2022-08-19T09:54:04;11.75;;;8.88;;
21032;SDS011;10675;47.976;7.824;2022-08-19T09:56:31;10.98;;;8.32;;
21032;SDS011;10675;47.976;7.824;2022-08-19T09:58:58;11.80;;;8.40;;
21032;SDS011;10675;47.976;7.824;2022-08-19T10:01:25;11.35;;;8.82;;
21032;SDS011;10675;47.976;7.824;2022-08-19T10:03:53;12.20;;;9.15;;
21032;SDS011;10675;47.976;7.824;2022-08-19T10:06:21;12.02;;;9.38;;
21032;SDS011;10675;47.976;7.824;2022-08-19T10:08:48;13.13;;;8.50;;
21032;SDS011;10675;47.976;7.824;2022-08-19T10:11:16;14.02;;;9.50;;
21032;SDS011;10675;47.976;7.824;2022-08-19T10:13:42;11.30;;;9.40;;
21032;SDS011;10675;47.976;7.824;2022-08-19T10:16:13;11.48;;;9.10;;
21032;SDS011;10675;47.976;7.824;2022-08-19T10:18:42;12.27;;;9.15;;
21032;SDS011;10675;47.976;7.824;2022-08-19T10:21:25;13.90;;;9.35;;
21032;SDS011;10675;47.976;7.824;2022-08-19T10:23:52;10.65;;;8.15;;
21032;SDS011;10675;47.976;7.824;2022-08-19T10:26:23;14.82;;;10.60;;
21032;SDS011;10675;47.976;7.824;2022-08-19T10:28:50;11.77;;;8.68;;
21032;SDS011;10675;47.976;7.824;2022-08-19T10:31:18;13.30;;;8.90;;
21032;SDS011;10675;47.976;7.824;2022-08-19T10:33:46;12.50;;;9.68;;
21032;SDS011;10675;47.976;7.824;2022-08-19T10:36:14;14.13;;;9.30;;
21032;SDS011;10675;47.976;7.824;2022-08-19T10:38:42;12.57;;;9.25;;
21032;SDS011;10675;47.976;7.824;2022-08-19T10:41:14;12.02;;;8.98;;
21032;SDS011;10675;47.976;7.824;2022-08-19T10:43:42;13.82;;;9.77;;
21032;SDS011;10675;47.976;7.824;2022-08-19T10:46:10;11.38;;;8.68;;
21032;SDS011;10675;47.976;7.824;2022-08-19T10:48:38;12.38;;;8.63;;
21032;SDS011;10675;47.976;7.824;2022-08-19T10:51:04;12.30;;;8.95;;
21032;SDS011;10675;47.976;7.824;2022-08-19T10:53:49;13.85;;;9.52;;
21032;SDS011;10675;47.976;7.824;2022-08-19T10:56:15;11.80;;;8.30;;
21032;SDS011;10675;47.976;7.824;2022-08-19T10:59:00;13.00;;;8.90;;
21032;SDS011;10675;47.976;7.824;2022-08-19T11:01:27;12.13;;;9.57;;
21032;SDS011;10675;47.976;7.824;2022-08-19T11:03:54;11.85;;;9.45;;
21032;SDS011;10675;47.976;7.824;2022-08-19T11:06:21;12.18;;;9.02;;
21032;SDS011;10675;47.976;7.824;2022-08-19T11:08:46;13.80;;;9.07;;
21032;SDS011;10675;47.976;7.824;2022-08-19T11:11:12;12.05;;;8.73;;
21032;SDS011;10675;47.976;7.824;2022-08-19T11:13:39;12.05;;;9.27;;
21032;SDS011;10675;47.976;7.824;2022-08-19T11:16:10;9.80;;;8.55;;
21032;SDS011;10675;47.976;7.824;2022-08-19T11:18:42;9.88;;;8.02;;
21032;SDS011;10675;47.976;7.824;2022-08-19T11:21:18;12.27;;;8.90;;
21032;SDS011;10675;47.976;7.824;2022-08-19T11:23:49;12.25;;;8.60;;
21032;SDS011;10675;47.976;7.824;2022-08-19T11:26:17;13.38;;;8.93;;
21032;SDS011;10675;47.976;7.824;2022-08-19T11:28:43;12.30;;;9.25;;
21032;SDS011;10675;47.976;7.824;2022-08-19T11:31:10;13.52;;;9.93;;
21032;SDS011;10675;47.976;7.824;2022-08-19T11:33:41;16.77;;;10.35;;
21032;SDS011;10675;47.976;7.824;2022-08-19T11:36:07;16.17;;;10.90;;
21032;SDS011;10675;47.976;7.824;2022-08-19T11:38:33;13.60;;;9.25;;
21032;SDS011;10675;47.976;7.824;2022-08-19T11:41:01;11.95;;;7.75;;
21032;SDS011;10675;47.976;7.824;2022-08-19T11:43:28;14.50;;;9.57;;
21032;SDS011;10675;47.976;7.824;2022-08-19T11:45:54;13.90;;;10.13;;
21032;SDS011;10675;47.976;7.824;2022-08-19T11:48:20;13.55;;;9.20;;
21032;SDS011;10675;47.976;7.824;2022-08-19T11:50:47;12.80;;;9.02;;
21032;SDS011;10675;47.976;7.824;2022-08-19T11:53:17;14.32;;;10.20;;
21032;SDS011;10675;47.976;7.824;2022-08-19T11:55:45;15.18;;;10.38;;
21032;SDS011;10675;47.976;7.824;2022-08-19T11:58:12;12.65;;;8.70;;
21032;SDS011;10675;47.976;7.824;2022-08-19T12:00:38;13.88;;;10.20;;
21032;SDS011;10675;47.976;7.824;2022-08-19T12:03:04;14.23;;;10.20;;
21032;SDS011;10675;47.976;7.824;2022-08-19T12:05:30;18.25;;;11.65;;
21032;SDS011;10675;47.976;7.824;2022-08-19T12:07:56;13.52;;;9.35;;
21032;SDS011;10675;47.976;7.824;2022-08-19T12:10:22;18.73;;;10.25;;
21032;SDS011;10675;47.976;7.824;2022-08-19T12:12:48;12.60;;;9.25;;
21032;SDS011;10675;47.976;7.824;2022-08-19T12:15:14;15.18;;;10.60;;
21032;SDS011;10675;47.976;7.824;2022-08-19T12:17:40;13.27;;;10.25;;
21032;SDS011;10675;47.976;7.824;2022-08-19T12:20:07;10.88;;;9.48;;
21032;SDS011;10675;47.976;7.824;2022-08-19T12:22:35;13.43;;;9.05;;
21032;SDS011;10675;47.976;7.824;2022-08-19T12:25:02;12.70;;;8.82;;
21032;SDS011;10675;47.976;7.824;2022-08-19T12:27:29;12.60;;;8.90;;
21032;SDS011;10675;47.976;7.824;2022-08-19T12:29:55;11.32;;;8.32;;
21032;SDS011;10675;47.976;7.824;2022-08-19T12:32:21;9.68;;;7.68;;
21032;SDS011;10675;47.976;7.824;2022-08-19T12:34:48;13.15;;;8.30;;
21032;SDS011;10675;47.976;7.824;2022-08-19T12:37:14;10.68;;;8.48;;
21032;SDS011;10675;47.976;7.824;2022-08-19T12:39:40;8.45;;;7.25;;
21032;SDS011;10675;47.976;7.824;2022-08-19T12:42:07;9.88;;;7.72;;
21032;SDS011;10675;47.976;7.824;2022-08-19T12:44:38;9.85;;;7.45;;
21032;SDS011;10675;47.976;7.824;2022-08-19T12:47:05;10.85;;;8.05;;
21032;SDS011;10675;47.976;7.824;2022-08-19T12:49:31;9.07;;;7.88;;
21032;SDS011;10675;47.976;7.824;2022-08-19T12:51:59;10.30;;;7.93;;
21032;SDS011;10675;47.976;7.824;2022-08-19T12:54:26;10.30;;;8.43;;
21032;SDS011;10675;47.976;7.824;2022-08-19T12:56:52;11.18;;;7.60;;
21032;SDS011;10675;47.976;7.824;2022-08-19T12:59:17;10.30;;;7.47;;
21032;SDS011;10675;47.976;7.824;2022-08-19T13:01:44;11.25;;;7.45;;
21032;SDS011;10675;47.976;7.824;2022-08-19T13:04:10;10.60;;;8.43;;
21032;SDS011;10675;47.976;7.824;2022-08-19T13:06:36;9.65;;;8.68;;
21032;SDS011;10675;47.976;7.824;2022-08-19T13:09:03;14.52;;;10.05;;
21032;SDS011;10675;47.976;7.824;2022-08-19T13:11:29;12.45;;;9.25;;
21032;SDS011;10675;47.976;7.824;2022-08-19T13:13:58;11.20;;;8.65;;
21032;SDS011;10675;47.976;7.824;2022-08-19T13:16:25;10.50;;;8.57;;
21032;SDS011;10675;47.976;7.824;2022-08-19T13:18:52;9.77;;;7.90;;
21032;SDS011;10675;47.976;7.824;2022-08-19T13:21:20;9.93;;;7.40;;
21032;SDS011;10675;47.976;7.824;2022-08-19T13:23:47;10.40;;;7.93;;
21032;SDS011;10675;47.976;7.824;2022-08-19T13:26:14;9.80;;;8.27;;
21032;SDS011;10675;47.976;7.824;2022-08-19T13:28:41;11.85;;;8.98;;
21032;SDS011;10675;47.976;7.824;2022-08-19T13:31:26;11.65;;;8.88;;
21032;SDS011;10675;47.976;7.824;2022-08-19T13:34:12;9.63;;;8.32;;
21032;SDS011;10675;47.976;7.824;2022-08-19T13:36:38;8.98;;;7.43;;
21032;SDS011;10675;47.976;7.824;2022-08-19T13:39:05;12.07;;;7.85;;
21032;SDS011;10675;47.976;7.824;2022-08-19T13:41:32;8.30;;;7.07;;
21032;SDS011;10675;47.976;7.824;2022-08-19T13:43:59;7.55;;;6.75;;
21032;SDS011;10675;47.976;7.824;2022-08-19T13:46:24;7.60;;;6.65;;
21032;SDS011;10675;47.976;7.824;2022-08-19T13:48:52;7.88;;;6.80;;
21032;SDS011;10675;47.976;7.824;2022-08-19T13:51:18;7.65;;;6.88;;
21032;SDS011;10675;47.976;7.824;2022-08-19T13:53:43;6.68;;;6.07;;
21032;SDS011;10675;47.976;7.824;2022-08-19T13:56:10;8.82;;;6.50;;
21032;SDS011;10675;47.976;7.824;2022-08-19T13:58:38;7.25;;;6.10;;
21032;SDS011;10675;47.976;7.824;2022-08-19T14:01:04;7.07;;;6.32;;
21032;SDS011;10675;47.976;7.824;2022-08-19T14:03:31;7.47;;;5.85;;
21032;SDS011;10675;47.976;7.824;2022-08-19T14:05:58;6.47;;;5.82;;
21032;SDS011;10675;47.976;7.824;2022-08-19T14:08:23;6.28;;;5.68;;
21032;SDS011;10675;47.976;7.824;2022-08-19T14:10:49;5.88;;;5.32;;
21032;SDS011;10675;47.976;7.824;2022-08-19T14:13:16;5.88;;;5.38;;
21032;SDS011;10675;47.976;7.824;2022-08-19T14:15:45;7.05;;;6.10;;
21032;SDS011;10675;47.976;7.824;2022-08-19T14:18:12;7.20;;;6.55;;
21032;SDS011;10675;47.976;7.824;2022-08-19T14:20:37;6.03;;;5.45;;
21032;SDS011;10675;47.976;7.824;2022-08-19T14:23:03;6.15;;;5.55;;
21032;SDS011;10675;47.976;7.824;2022-08-19T14:25:32;6.35;;;5.75;;
21032;SDS011;10675;47.976;7.824;2022-08-19T14:27:58;7.32;;;6.63;;
21032;SDS011;10675;47.976;7.824;2022-08-19T14:30:26;7.07;;;5.80;;
21032;SDS011;10675;47.976;7.824;2022-08-19T14:32:57;6.78;;;6.05;;
21032;SDS011;10675;47.976;7.824;2022-08-19T14:35:24;7.43;;;6.72;;
21032;SDS011;10675;47.976;7.824;2022-08-19T14:37:52;7.43;;;6.72;;
21032;SDS011;10675;47.976;7.824;2022-08-19T14:40:23;6.78;;;6.10;;
21032;SDS011;10675;47.976;7.824;2022-08-19T14:42:51;7.80;;;7.10;;
21032;SDS011;10675;47.976;7.824;2022-08-19T14:45:20;12.07;;;8.02;;
21032;SDS011;10675;47.976;7.824;2022-08-19T14:47:46;8.57;;;7.28;;
21032;SDS011;10675;47.976;7.824;2022-08-19T14:50:12;8.18;;;6.85;;
21032;SDS011;10675;47.976;7.824;2022-08-19T14:52:38;9.43;;;8.15;;
21032;SDS011;10675;47.976;7.824;2022-08-19T14:55:05;8.05;;;7.25;;
21032;SDS011;10675;47.976;7.824;2022-08-19T14:57:30;10.07;;;7.95;;
21032;SDS011;10675;47.976;7.824;2022-08-19T14:59:56;9.45;;;7.93;;
21032;SDS011;10675;47.976;7.824;2022-08-19T15:02:22;8.18;;;7.38;;